createdAt,value
2019-04-07T00:00:45.432Z,25.57
2019-04-07T00:03:13.795Z,24.65
2019-04-07T00:05:42.570Z,26.50
2019-04-07T00:08:11.179Z,25.60
2019-04-07T00:10:39.085Z,25.75
2019-04-07T00:13:07.167Z,26.90
2019-04-07T00:15:35.352Z,24.55
2019-04-07T00:18:04.355Z,26.75
2019-04-07T00:20:33.352Z,28.38
2019-04-07T00:23:01.230Z,25.27
2019-04-07T00:25:29.975Z,26.45
2019-04-07T00:27:58.561Z,24.72
2019-04-07T00:30:26.683Z,25.40
2019-04-07T00:32:54.785Z,27.60
2019-04-07T00:35:30.434Z,26.55
2019-04-07T00:37:53.831Z,27.98
2019-04-07T00:40:22.398Z,26.12
2019-04-07T00:42:50.397Z,27.30
2019-04-07T00:45:18.449Z,28.83
2019-04-07T00:47:47.115Z,28.92
2019-04-07T00:50:16.155Z,29.80
2019-04-07T00:52:44.871Z,27.55
2019-04-07T00:55:13.139Z,30.50
2019-04-07T00:57:40.979Z,30.55
2019-04-07T01:00:10.608Z,30.65
2019-04-07T01:02:38.848Z,27.95
2019-04-07T01:05:07.290Z,28.15
2019-04-07T01:07:35.602Z,28.32
2019-04-07T01:10:05.063Z,26.90
2019-04-07T01:12:33.590Z,27.05
2019-04-07T01:15:02.260Z,24.85
2019-04-07T01:17:30.331Z,25.00
2019-04-07T01:19:58.665Z,24.95
2019-04-07T01:22:26.624Z,25.02
2019-04-07T01:24:54.829Z,24.40
2019-04-07T01:27:22.891Z,23.40
2019-04-07T01:29:50.849Z,23.05
2019-04-07T01:32:19.217Z,21.17
2019-04-07T01:34:47.082Z,24.77
2019-04-07T01:37:15.316Z,22.42
2019-04-07T01:39:43.875Z,22.75
2019-04-07T01:42:37.594Z,23.25
2019-04-07T01:45:16.896Z,20.00
2019-04-07T01:48:01.221Z,21.48
2019-04-07T01:50:39.076Z,19.52
2019-04-07T01:53:14.856Z,21.35
2019-04-07T01:56:02.936Z,20.27
2019-04-07T01:58:39.552Z,20.75
2019-04-07T02:01:23.499Z,22.90
2019-04-07T02:04:11.499Z,22.37
2019-04-07T02:06:59.359Z,22.95
2019-04-07T02:09:49.543Z,24.00
2019-04-07T02:12:35.625Z,21.82
2019-04-07T02:15:22.844Z,20.68
2019-04-07T02:18:09.637Z,22.37
2019-04-07T02:20:55.367Z,20.52
2019-04-07T02:23:42.847Z,26.48
2019-04-07T02:26:24.427Z,26.00
2019-04-07T02:29:12.588Z,25.92
2019-04-07T02:32:06.172Z,30.12
2019-04-07T02:34:40.125Z,28.67
2019-04-07T02:37:20.581Z,30.30
2019-04-07T02:40:21.399Z,28.87
2019-04-07T02:43:03.334Z,29.60
2019-04-07T02:45:43.163Z,29.15
2019-04-07T02:48:29.527Z,28.67
2019-04-07T02:51:22.897Z,27.93
2019-04-07T02:54:10.548Z,28.42
2019-04-07T02:57:02.427Z,27.93
2019-04-07T02:59:51.414Z,30.15
2019-04-07T03:02:37.860Z,31.00
2019-04-07T03:05:16.483Z,28.80
2019-04-07T03:07:57.477Z,30.05
2019-04-07T03:10:49.724Z,31.17
2019-04-07T03:13:24.506Z,30.55
2019-04-07T03:16:31.455Z,28.92
2019-04-07T03:19:22.190Z,28.00
2019-04-07T03:22:02.851Z,29.25
2019-04-07T03:25:05.595Z,29.67
2019-04-07T03:28:06.797Z,29.63
2019-04-07T03:31:01.851Z,30.57
2019-04-07T03:33:56.522Z,31.10
2019-04-07T03:37:11.684Z,31.60
2019-04-07T03:39:35.604Z,30.77
2019-04-07T03:42:12.531Z,31.23
2019-04-07T03:45:06.178Z,29.20
2019-04-07T03:47:44.066Z,29.75
2019-04-07T03:50:25.230Z,32.78
2019-04-07T03:53:22.259Z,33.65
2019-04-07T03:56:13.491Z,31.37
2019-04-07T03:58:58.414Z,30.00
2019-04-07T04:02:01.235Z,30.80
2019-04-07T04:04:46.534Z,30.25
2019-04-07T04:07:36.923Z,30.90
2019-04-07T04:10:10.221Z,28.62
2019-04-07T04:13:05.047Z,29.80
2019-04-07T04:15:46.897Z,30.92
2019-04-07T04:18:14.924Z,30.27
2019-04-07T04:20:44.357Z,31.80
2019-04-07T04:23:12.871Z,29.07
2019-04-07T04:25:41.080Z,32.38
2019-04-07T04:28:09.241Z,29.60
2019-04-07T04:30:37.279Z,30.75
2019-04-07T04:33:06.261Z,29.60
2019-04-07T04:35:34.611Z,31.97
2019-04-07T04:38:02.614Z,28.23
2019-04-07T04:40:30.570Z,29.90
2019-04-07T04:42:58.489Z,29.18
2019-04-07T04:45:26.403Z,25.35
2019-04-07T04:47:54.388Z,31.93
2019-04-07T04:50:23.500Z,27.35
2019-04-07T04:52:52.289Z,27.82
2019-04-07T04:55:20.448Z,30.20
2019-04-07T04:57:48.702Z,30.10
2019-04-07T05:00:16.543Z,29.27
2019-04-07T05:02:45.625Z,29.27
2019-04-07T05:05:13.916Z,29.98
2019-04-07T05:07:54.933Z,29.80
2019-04-07T05:10:12.178Z,30.72
2019-04-07T05:12:40.363Z,29.87
2019-04-07T05:15:08.581Z,30.30
2019-04-07T05:17:36.951Z,29.12
2019-04-07T05:20:05.902Z,29.12
2019-04-07T05:22:33.824Z,30.80
2019-04-07T05:25:02.313Z,30.75
2019-04-07T05:27:30.815Z,28.32
2019-04-07T05:29:58.850Z,27.40
2019-04-07T05:32:27.396Z,29.92
2019-04-07T05:34:55.792Z,27.87
2019-04-07T05:37:24.171Z,28.55
2019-04-07T05:39:52.683Z,30.43
2019-04-07T05:42:20.531Z,28.83
2019-04-07T05:44:48.624Z,30.62
2019-04-07T05:47:16.545Z,31.50
2019-04-07T05:49:44.622Z,34.70
2019-04-07T05:52:12.794Z,34.90
2019-04-07T05:54:41.109Z,34.90
2019-04-07T05:57:09.756Z,34.33
2019-04-07T05:59:39.929Z,32.95
2019-04-07T06:02:08.077Z,33.33
2019-04-07T06:04:36.110Z,33.13
2019-04-07T06:07:04.609Z,32.33
2019-04-07T06:09:33.760Z,28.10
2019-04-07T06:12:05.954Z,28.90
2019-04-07T06:14:32.361Z,28.80
2019-04-07T06:17:00.911Z,29.05
2019-04-07T06:19:29.390Z,29.30
2019-04-07T06:21:59.338Z,29.05
2019-04-07T06:24:31.664Z,27.67
2019-04-07T06:26:57.565Z,30.57
2019-04-07T06:29:26.516Z,30.23
2019-04-07T06:31:54.932Z,27.27
2019-04-07T06:34:23.744Z,28.90
2019-04-07T06:36:54.772Z,29.75
2019-04-07T06:39:21.616Z,30.92
2019-04-07T06:41:49.612Z,29.60
2019-04-07T06:44:20.950Z,31.77
2019-04-07T06:47:08.567Z,29.75
2019-04-07T06:49:53.163Z,30.82
2019-04-07T06:52:32.186Z,30.57
2019-04-07T06:55:33.025Z,30.62
2019-04-07T06:58:19.960Z,29.57
2019-04-07T07:01:13.467Z,27.50
2019-04-07T07:04:13.971Z,27.45
2019-04-07T07:07:02.356Z,26.15
2019-04-07T07:09:54.822Z,27.52
2019-04-07T07:12:48.766Z,27.98
2019-04-07T07:15:37.163Z,27.67
2019-04-07T07:18:20.004Z,25.80
2019-04-07T07:21:05.028Z,26.37
2019-04-07T07:23:38.585Z,24.47
2019-04-07T07:26:07.088Z,26.55
2019-04-07T07:28:35.926Z,25.48
2019-04-07T07:31:05.401Z,25.85
2019-04-07T07:33:33.583Z,23.10
2019-04-07T07:36:02.350Z,24.00
2019-04-07T07:38:32.459Z,23.07
2019-04-07T07:41:02.299Z,24.05
2019-04-07T07:43:30.289Z,22.58
2019-04-07T07:45:59.047Z,26.02
2019-04-07T07:48:28.371Z,23.50
2019-04-07T07:50:56.496Z,22.45
2019-04-07T07:53:27.074Z,23.77
2019-04-07T07:55:55.422Z,23.87
2019-04-07T07:58:23.671Z,25.95
2019-04-07T08:00:52.496Z,23.30
2019-04-07T08:03:22.861Z,23.70
2019-04-07T08:05:51.229Z,22.37
2019-04-07T08:08:20.039Z,18.17
2019-04-07T08:10:48.450Z,20.92
2019-04-07T08:13:16.860Z,17.45
2019-04-07T08:15:45.838Z,18.60
2019-04-07T08:18:13.872Z,17.40
2019-04-07T08:20:44.930Z,15.30
2019-04-07T08:23:12.538Z,21.00
2019-04-07T08:25:41.291Z,17.85
2019-04-07T08:28:09.821Z,13.65
2019-04-07T08:30:38.274Z,12.30
2019-04-07T08:33:07.255Z,9.15
2019-04-07T08:35:38.131Z,17.60
2019-04-07T08:38:05.728Z,17.17
2019-04-07T08:40:36.536Z,15.80
2019-04-07T08:43:04.077Z,15.48
2019-04-07T08:45:32.807Z,14.45
2019-04-07T08:48:01.070Z,13.32
2019-04-07T08:50:29.834Z,11.80
2019-04-07T08:52:58.049Z,10.70
2019-04-07T08:55:26.045Z,10.65
2019-04-07T08:57:53.975Z,9.20
2019-04-07T09:00:24.884Z,11.63
2019-04-07T09:03:02.400Z,9.88
2019-04-07T09:05:27.699Z,10.18
2019-04-07T09:07:54.018Z,10.10
2019-04-07T09:10:34.505Z,9.70
2019-04-07T09:13:04.831Z,8.80
2019-04-07T09:15:53.370Z,10.18
2019-04-07T09:18:28.938Z,9.05
2019-04-07T09:21:35.497Z,8.65
2019-04-07T09:24:24.923Z,9.05
2019-04-07T09:27:16.982Z,9.83
2019-04-07T09:29:53.448Z,9.20
2019-04-07T09:32:32.371Z,9.45
2019-04-07T09:35:12.316Z,8.35
2019-04-07T09:38:00.456Z,8.10
2019-04-07T09:40:42.327Z,8.05
2019-04-07T09:43:30.257Z,7.40
2019-04-07T09:46:32.334Z,6.15
2019-04-07T09:49:32.396Z,5.42
2019-04-07T09:52:10.386Z,4.12
2019-04-07T09:55:02.867Z,4.35
2019-04-07T09:57:41.844Z,4.25
2019-04-07T10:00:16.013Z,4.17
2019-04-07T10:03:07.733Z,6.10
2019-04-07T10:06:05.398Z,5.87
2019-04-07T10:08:58.906Z,5.10
2019-04-07T10:11:43.936Z,5.80
2019-04-07T10:14:49.919Z,6.03
2019-04-07T10:17:47.041Z,6.63
2019-04-07T10:20:34.833Z,5.77
2019-04-07T10:23:11.200Z,5.50
2019-04-07T10:25:56.112Z,5.20
2019-04-07T10:28:32.263Z,5.20
2019-04-07T10:31:20.761Z,5.70
2019-04-07T10:34:33.876Z,5.30
2019-04-07T10:37:25.495Z,4.50
2019-04-07T10:40:25.539Z,4.57
2019-04-07T10:43:07.066Z,4.33
2019-04-07T10:46:06.948Z,4.87
2019-04-07T10:49:00.382Z,4.77
2019-04-07T10:51:53.482Z,5.07
2019-04-07T10:54:43.871Z,5.20
2019-04-07T10:57:35.417Z,5.10
2019-04-07T11:00:46.507Z,4.50
2019-04-07T11:03:48.683Z,5.83
2019-04-07T11:06:36.557Z,5.30
2019-04-07T11:09:26.650Z,5.73
2019-04-07T11:12:30.989Z,5.13
2019-04-07T11:15:34.111Z,5.33
2019-04-07T11:18:12.346Z,5.23
2019-04-07T11:20:58.460Z,4.23
2019-04-07T11:23:33.253Z,6.63
2019-04-07T11:26:11.289Z,6.13
2019-04-07T11:28:48.054Z,6.10
2019-04-07T11:31:29.160Z,5.77
2019-04-07T11:34:01.613Z,5.90
2019-04-07T11:36:52.851Z,6.90
2019-04-07T11:39:46.435Z,7.23
2019-04-07T11:42:37.042Z,6.43
2019-04-07T11:45:26.972Z,6.00
2019-04-07T11:48:10.793Z,9.13
2019-04-07T11:50:53.038Z,7.63
2019-04-07T11:53:46.593Z,8.57
2019-04-07T11:56:40.167Z,8.77
2019-04-07T11:59:18.039Z,9.10
2019-04-07T12:02:07.575Z,9.10
2019-04-07T12:04:46.863Z,11.00
2019-04-07T12:07:23.219Z,11.33
2019-04-07T12:10:10.132Z,10.10
2019-04-07T12:12:45.093Z,10.00
2019-04-07T12:15:29.993Z,9.60
2019-04-07T12:18:18.866Z,10.17
2019-04-07T12:20:55.244Z,10.30
2019-04-07T12:24:01.538Z,10.33
2019-04-07T12:26:47.295Z,9.77
2019-04-07T12:29:34.236Z,9.37
2019-04-07T12:32:20.336Z,9.70
2019-04-07T12:35:07.360Z,9.80
2019-04-07T12:37:57.958Z,9.20
2019-04-07T12:41:14.276Z,9.10
2019-04-07T12:43:54.021Z,9.90
2019-04-07T12:46:36.449Z,8.37
2019-04-07T12:49:18.894Z,9.57
2019-04-07T12:52:05.513Z,10.03
2019-04-07T12:54:46.028Z,9.30
2019-04-07T12:57:25.251Z,9.80
2019-04-07T13:00:12.482Z,8.70
2019-04-07T13:02:56.659Z,8.90
2019-04-07T13:05:50.928Z,9.40
2019-04-07T13:08:49.043Z,8.70
2019-04-07T13:11:50.358Z,9.20
2019-04-07T13:14:56.128Z,8.50
2019-04-07T13:17:48.473Z,8.90
2019-04-07T13:20:39.743Z,9.80
2019-04-07T13:23:31.499Z,10.10
2019-04-07T13:26:16.441Z,10.97
2019-04-07T13:28:50.070Z,11.53
2019-04-07T13:31:45.990Z,11.50
2019-04-07T13:34:33.525Z,11.27
2019-04-07T13:37:12.353Z,12.03
2019-04-07T13:39:58.896Z,12.13
2019-04-07T13:42:49.862Z,11.70
2019-04-07T13:45:36.054Z,11.97
2019-04-07T13:48:33.380Z,12.57
2019-04-07T13:51:24.557Z,11.53
2019-04-07T13:54:11.092Z,10.70
2019-04-07T13:56:57.936Z,10.60
2019-04-07T13:59:39.995Z,12.07
2019-04-07T14:02:34.209Z,11.63
2019-04-07T14:05:11.061Z,11.30
2019-04-07T14:08:03.979Z,12.00
2019-04-07T14:10:55.011Z,11.00
2019-04-07T14:13:42.703Z,11.00
2019-04-07T14:16:17.543Z,11.73
2019-04-07T14:19:01.339Z,12.63
2019-04-07T14:21:41.096Z,11.80
2019-04-07T14:24:16.818Z,13.47
2019-04-07T14:26:54.193Z,12.80
2019-04-07T14:30:00.401Z,11.40
2019-04-07T14:32:49.812Z,12.20
2019-04-07T14:35:36.939Z,11.83
2019-04-07T14:38:20.109Z,11.40
2019-04-07T14:41:16.537Z,12.87
2019-04-07T14:43:56.534Z,12.03
2019-04-07T14:46:43.704Z,12.20
2019-04-07T14:49:27.376Z,12.37
2019-04-07T14:52:05.731Z,11.07
2019-04-07T14:54:56.569Z,11.20
2019-04-07T14:57:40.645Z,12.83
2019-04-07T15:00:37.637Z,11.50
2019-04-07T15:03:07.332Z,11.67
2019-04-07T15:05:38.831Z,12.43
2019-04-07T15:08:16.306Z,11.77
2019-04-07T15:10:50.206Z,11.23
2019-04-07T15:13:23.960Z,12.33
2019-04-07T15:15:51.671Z,12.37
2019-04-07T15:18:21.550Z,12.10
2019-04-07T15:20:50.547Z,12.43
2019-04-07T15:23:19.855Z,11.23
2019-04-07T15:25:47.893Z,11.50
2019-04-07T15:28:16.195Z,13.27
2019-04-07T15:30:47.977Z,13.40
2019-04-07T15:33:14.662Z,10.93
2019-04-07T15:35:47.864Z,11.00
2019-04-07T15:38:14.218Z,13.77
2019-04-07T15:40:42.780Z,10.80
2019-04-07T15:43:12.299Z,11.87
2019-04-07T15:45:42.669Z,11.77
2019-04-07T15:48:10.848Z,11.90
2019-04-07T15:50:39.568Z,12.20
2019-04-07T15:53:07.979Z,13.37
2019-04-07T15:55:45.932Z,11.47
2019-04-07T15:58:05.743Z,12.40
2019-04-07T16:00:35.265Z,13.07
2019-04-07T16:03:04.190Z,12.90
2019-04-07T16:05:39.964Z,13.23
2019-04-07T16:08:02.610Z,11.07
2019-04-07T16:10:31.304Z,11.27
2019-04-07T16:12:59.784Z,12.67
2019-04-07T16:15:28.191Z,12.23
2019-04-07T16:17:57.232Z,12.67
2019-04-07T16:20:31.628Z,11.10
2019-04-07T16:22:56.382Z,12.00
2019-04-07T16:25:27.559Z,11.60
2019-04-07T16:27:54.637Z,12.20
2019-04-07T16:30:23.431Z,10.80
2019-04-07T16:32:52.390Z,12.73
2019-04-07T16:35:21.186Z,11.77
2019-04-07T16:37:49.208Z,12.80
2019-04-07T16:40:17.264Z,13.70
2019-04-07T16:43:00.436Z,12.27
2019-04-07T16:45:17.782Z,13.63
2019-04-07T16:47:45.607Z,11.20
2019-04-07T16:50:18.163Z,13.73
2019-04-07T16:52:44.729Z,12.80
2019-04-07T16:55:39.901Z,11.97
2019-04-07T16:58:09.615Z,10.80
2019-04-07T17:00:38.430Z,11.10
2019-04-07T17:03:08.321Z,11.00
2019-04-07T17:05:37.279Z,11.40
2019-04-07T17:08:05.991Z,10.85
2019-04-07T17:10:35.436Z,11.97
2019-04-07T17:13:14.639Z,10.35
2019-04-07T17:15:37.354Z,10.18
2019-04-07T17:18:08.555Z,9.68
2019-04-07T17:20:38.160Z,10.85
2019-04-07T17:23:07.107Z,10.53
2019-04-07T17:25:36.152Z,8.93
2019-04-07T17:28:06.257Z,9.40
2019-04-07T17:30:35.932Z,9.53
2019-04-07T17:33:05.226Z,9.98
2019-04-07T17:35:35.564Z,8.95
2019-04-07T17:38:06.780Z,9.60
2019-04-07T17:40:43.284Z,9.75
2019-04-07T17:43:30.162Z,9.53
2019-04-07T17:46:16.674Z,8.73
2019-04-07T17:49:06.657Z,10.40
2019-04-07T17:51:48.054Z,10.08
2019-04-07T17:54:34.904Z,8.10
2019-04-07T17:57:25.815Z,9.43
2019-04-07T18:00:01.406Z,10.55
2019-04-07T18:02:54.932Z,11.70
2019-04-07T18:05:41.081Z,11.25
2019-04-07T18:08:20.264Z,10.70
2019-04-07T18:11:06.421Z,11.40
2019-04-07T18:14:06.230Z,11.83
2019-04-07T18:17:02.420Z,12.95
2019-04-07T18:19:59.644Z,10.95
2019-04-07T18:22:47.577Z,10.80
2019-04-07T18:25:44.601Z,10.48
2019-04-07T18:28:30.522Z,10.88
2019-04-07T18:31:08.102Z,11.40
2019-04-07T18:33:55.851Z,11.53
2019-04-07T18:36:36.760Z,11.85
2019-04-07T18:39:30.465Z,10.68
2019-04-07T18:42:10.309Z,10.32
2019-04-07T18:44:42.570Z,12.20
2019-04-07T18:47:37.004Z,12.53
2019-04-07T18:50:29.324Z,12.93
2019-04-07T18:53:11.004Z,13.48
2019-04-07T18:56:01.544Z,12.05
2019-04-07T18:58:55.816Z,13.50
2019-04-07T19:01:46.897Z,12.93
2019-04-07T19:04:41.358Z,12.85
2019-04-07T19:07:38.059Z,11.95
2019-04-07T19:10:25.439Z,12.73
2019-04-07T19:13:13.366Z,12.40
2019-04-07T19:15:47.183Z,14.07
2019-04-07T19:18:40.220Z,14.30
2019-04-07T19:21:28.042Z,13.00
2019-04-07T19:24:16.423Z,11.97
2019-04-07T19:27:15.300Z,12.03
2019-04-07T19:29:55.296Z,10.68
2019-04-07T19:32:41.732Z,10.48
2019-04-07T19:35:30.342Z,12.47
2019-04-07T19:38:23.326Z,11.97
2019-04-07T19:41:08.904Z,10.93
2019-04-07T19:43:44.643Z,10.72
2019-04-07T19:46:26.477Z,9.85
2019-04-07T19:49:27.861Z,8.85
2019-04-07T19:52:14.315Z,9.73
2019-04-07T19:54:51.401Z,9.55
2019-04-07T19:57:34.277Z,8.68
2019-04-07T20:00:30.841Z,7.78
2019-04-07T20:03:28.381Z,7.72
2019-04-07T20:06:22.354Z,7.08
2019-04-07T20:09:05.082Z,6.92
2019-04-07T20:11:51.453Z,6.62
2019-04-07T20:14:58.913Z,6.17
2019-04-07T20:17:38.805Z,6.15
2019-04-07T20:20:20.118Z,6.05
2019-04-07T20:23:06.463Z,6.55
2019-04-07T20:25:48.057Z,5.80
2019-04-07T20:28:46.476Z,6.15
2019-04-07T20:31:27.897Z,6.40
2019-04-07T20:34:03.933Z,5.62
2019-04-07T20:36:59.620Z,6.58
2019-04-07T20:39:46.280Z,6.30
2019-04-07T20:42:34.743Z,5.78
2019-04-07T20:45:23.988Z,6.53
2019-04-07T20:48:19.819Z,5.65
2019-04-07T20:51:08.366Z,7.65
2019-04-07T20:53:55.644Z,7.58
2019-04-07T20:56:47.527Z,6.58
2019-04-07T20:59:48.603Z,6.40
2019-04-07T21:02:27.766Z,5.15
2019-04-07T21:05:18.643Z,5.62
2019-04-07T21:08:01.599Z,5.92
2019-04-07T21:11:07.661Z,6.47
2019-04-07T21:14:04.584Z,5.60
2019-04-07T21:16:51.028Z,5.62
2019-04-07T21:19:42.261Z,5.92
2019-04-07T21:22:43.309Z,5.55
2019-04-07T21:25:28.239Z,5.87
2019-04-07T21:28:06.261Z,6.15
2019-04-07T21:30:48.484Z,5.58
2019-04-07T21:33:45.269Z,6.00
2019-04-07T21:36:28.035Z,5.95
2019-04-07T21:39:07.861Z,7.10
2019-04-07T21:41:49.965Z,5.80
2019-04-07T21:44:27.046Z,8.48
2019-04-07T21:47:20.547Z,6.30
2019-04-07T21:50:10.010Z,6.62
2019-04-07T21:52:45.087Z,5.90
2019-04-07T21:55:32.980Z,6.87
2019-04-07T21:58:19.587Z,7.75
2019-04-07T22:01:13.373Z,7.92
2019-04-07T22:03:56.668Z,8.63
2019-04-07T22:06:44.639Z,7.15
2019-04-07T22:09:19.686Z,7.72
2019-04-07T22:11:49.442Z,6.67
2019-04-07T22:14:18.715Z,8.28
2019-04-07T22:16:47.150Z,7.72
2019-04-07T22:19:16.366Z,7.72
2019-04-07T22:21:45.239Z,7.33
2019-04-07T22:24:13.538Z,7.95
2019-04-07T22:26:45.935Z,7.15
2019-04-07T22:29:11.923Z,7.62
2019-04-07T22:31:47.830Z,8.10
2019-04-07T22:34:16.605Z,7.85
2019-04-07T22:36:47.021Z,7.72
2019-04-07T22:39:14.552Z,6.62
2019-04-07T22:41:44.192Z,7.45
2019-04-07T22:44:12.268Z,6.50
2019-04-07T22:46:41.654Z,7.37
2019-04-07T22:49:09.794Z,7.97
2019-04-07T22:51:38.177Z,7.75
2019-04-07T22:54:06.160Z,7.92
2019-04-07T22:56:36.583Z,7.83
2019-04-07T22:59:04.153Z,7.70
2019-04-07T23:01:33.374Z,7.62
2019-04-07T23:04:02.210Z,7.50
2019-04-07T23:06:31.387Z,7.10
2019-04-07T23:08:59.693Z,7.72
2019-04-07T23:11:27.892Z,6.87
2019-04-07T23:13:55.842Z,7.83
2019-04-07T23:16:24.035Z,8.73
2019-04-07T23:18:52.125Z,8.13
2019-04-07T23:21:20.191Z,8.40
2019-04-07T23:23:48.359Z,6.78
2019-04-07T23:26:16.323Z,7.85
2019-04-07T23:28:44.417Z,8.48
2019-04-07T23:31:12.493Z,8.05
2019-04-07T23:33:41.741Z,8.73
2019-04-07T23:36:10.208Z,7.75
2019-04-07T23:38:39.007Z,8.60
2019-04-07T23:41:07.277Z,7.70
2019-04-07T23:43:35.560Z,8.28
2019-04-07T23:46:05.013Z,8.25
2019-04-07T23:48:33.015Z,8.20
2019-04-07T23:51:01.706Z,7.92
2019-04-07T23:54:07.545Z,9.35
2019-04-07T23:56:36.554Z,8.25
2019-04-07T23:59:06.153Z,9.28
